Time;durP1;ratioP1;P1;durP2;ratioP2;P2;SDS_P1;SDS_P2;PMS_P1;PMS_P2;Temp;Humidity;BMP_temperature;BMP_pressure;BME280_temperature;BME280_humidity;BME280_pressure;Samples;Min_cycle;Max_cycle;Signal;HPM_P1;HPM_P2
2022/11/27 00:02:13;;;;;;;;;10.67;10.67;;;;;;;;5132448;27;45649;-70
2022/11/27 00:04:38;;;;;;;;;14.33;11.33;;;;;;;;5134947;27;45317;-69
2022/11/27 00:07:03;;;;;;;;;12.00;12.00;;;;;;;;5125733;27;45580;-69
2022/11/27 00:09:29;;;;;;;;;15.67;11.67;;;;;;;;5117522;27;45636;-68
2022/11/27 00:11:54;;;;;;;;;15.00;12.67;;;;;;;;5129132;27;45638;-69
2022/11/27 00:14:19;;;;;;;;;14.33;13.00;;;;;;;;5115990;27;45355;-68
2022/11/27 00:16:45;;;;;;;;;15.67;14.00;;;;;;;;5134137;27;45416;-69
2022/11/27 00:19:10;;;;;;;;;13.67;13.00;;;;;;;;5135328;27;45563;-69
2022/11/27 00:21:36;;;;;;;;;17.67;12.67;;;;;;;;5133154;27;45394;-67
2022/11/27 00:24:03;;;;;;;;;14.33;11.67;;;;;;;;5135308;27;45469;-69
2022/11/27 00:26:29;;;;;;;;;18.67;14.33;;;;;;;;5118724;27;46040;-69
2022/11/27 00:28:54;;;;;;;;;11.67;11.67;;;;;;;;5116252;27;46631;-73
2022/11/27 00:31:21;;;;;;;;;13.33;11.33;;;;;;;;5103545;27;45630;-72
2022/11/27 00:33:46;;;;;;;;;15.33;11.00;;;;;;;;5117342;27;45409;-74
2022/11/27 00:36:12;;;;;;;;;10.00;7.67;;;;;;;;5130492;27;45481;-73
2022/11/27 00:38:38;;;;;;;;;12.33;10.00;;;;;;;;5117742;27;45355;-73
2022/11/27 00:41:07;;;;;;;;;12.33;10.33;;;;;;;;5120379;27;45315;-72
2022/11/27 00:43:33;;;;;;;;;16.33;13.33;;;;;;;;5117724;27;45827;-74
2022/11/27 00:45:58;;;;;;;;;15.00;12.00;;;;;;;;5115747;27;45732;-72
2022/11/27 00:48:24;;;;;;;;;9.67;9.67;;;;;;;;5124536;27;45630;-72
2022/11/27 00:50:49;;;;;;;;;11.00;10.00;;;;;;;;5122113;27;45751;-73
2022/11/27 00:53:14;;;;;;;;;13.67;12.00;;;;;;;;5118777;27;45759;-74
2022/11/27 00:55:39;;;;;;;;;10.67;7.33;;;;;;;;5120272;27;45722;-74
2022/11/27 00:58:05;;;;;;;;;10.67;9.00;;;;;;;;5122118;27;46425;-73
2022/11/27 01:00:30;;;;;;;;;13.00;10.33;;;;;;;;5124734;27;45333;-73
2022/11/27 01:02:55;;;;;;;;;13.00;10.00;;;;;;;;5124206;27;45456;-73
2022/11/27 01:05:20;;;;;;;;;7.67;6.67;;;;;;;;5123313;27;46141;-72
2022/11/27 01:07:46;;;;;;;;;11.33;11.33;;;;;;;;5126991;27;46918;-73
2022/11/27 01:10:11;;;;;;;;;9.00;7.00;;;;;;;;5126038;27;45502;-72
2022/11/27 01:12:36;;;;;;;;;11.33;11.33;;;;;;;;5131285;27;45487;-73
2022/11/27 01:15:02;;;;;;;;;11.33;9.33;;;;;;;;5126988;27;45304;-74
2022/11/27 01:17:27;;;;;;;;;11.00;8.67;;;;;;;;5132005;27;46272;-73
2022/11/27 01:19:52;;;;;;;;;9.33;9.33;;;;;;;;5128672;27;45580;-73
2022/11/27 01:22:17;;;;;;;;;8.67;8.67;;;;;;;;5133308;27;45633;-74
2022/11/27 01:24:43;;;;;;;;;8.33;7.00;;;;;;;;5132616;27;45605;-72
2022/11/27 01:27:08;;;;;;;;;14.33;13.33;;;;;;;;5125668;27;45797;-72
2022/11/27 01:29:33;;;;;;;;;11.33;9.00;;;;;;;;5117073;27;45573;-72
2022/11/27 01:31:58;;;;;;;;;14.00;11.67;;;;;;;;5116575;27;45706;-71
2022/11/27 01:34:24;;;;;;;;;17.33;12.67;;;;;;;;5118760;27;45250;-73
2022/11/27 01:36:49;;;;;;;;;12.33;12.33;;;;;;;;5124164;27;47068;-74
2022/11/27 01:39:18;;;;;;;;;9.33;7.33;;;;;;;;5124458;27;45635;-73
2022/11/27 01:41:44;;;;;;;;;12.00;9.67;;;;;;;;5122928;27;45691;-73
2022/11/27 01:44:24;;;;;;;;;11.33;9.00;;;;;;;;5118976;27;45849;-72
2022/11/27 01:47:02;;;;;;;;;12.33;7.00;;;;;;;;5109918;27;45747;-72
2022/11/27 01:49:29;;;;;;;;;9.67;9.67;;;;;;;;5105717;27;45419;-73
2022/11/27 01:51:57;;;;;;;;;14.33;9.67;;;;;;;;5099085;27;45797;-73
2022/11/27 01:54:25;;;;;;;;;10.67;10.00;;;;;;;;5113460;27;47218;-73
2022/11/27 01:56:55;;;;;;;;;11.33;10.67;;;;;;;;5127028;27;45719;-73
2022/11/27 01:59:20;;;;;;;;;10.67;8.67;;;;;;;;5118856;27;45482;-72
2022/11/27 02:01:46;;;;;;;;;11.67;8.67;;;;;;;;5115050;27;45310;-73
2022/11/27 02:04:11;;;;;;;;;13.67;12.00;;;;;;;;5124955;27;45382;-74
2022/11/27 02:06:36;;;;;;;;;8.67;8.00;;;;;;;;5128372;27;45328;-73
2022/11/27 02:09:02;;;;;;;;;13.67;10.00;;;;;;;;5124830;27;45295;-75
2022/11/27 02:11:54;;;;;;;;;11.67;9.00;;;;;;;;5103370;27;45364;-73
2022/11/27 02:14:26;;;;;;;;;10.67;9.67;;;;;;;;5118928;27;45932;-73
2022/11/27 02:16:59;;;;;;;;;9.67;9.67;;;;;;;;5107560;27;45715;-73
2022/11/27 02:19:32;;;;;;;;;16.67;10.33;;;;;;;;5113039;27;45386;-72
2022/11/27 02:22:05;;;;;;;;;14.67;13.67;;;;;;;;5107501;27;45616;-71
2022/11/27 02:24:42;;;;;;;;;13.00;10.00;;;;;;;;5110715;27;45590;-73
2022/11/27 02:27:26;;;;;;;;;12.67;9.00;;;;;;;;5096698;27;45444;-72
2022/11/27 02:29:53;;;;;;;;;10.33;9.67;;;;;;;;5109913;27;45839;-73
2022/11/27 02:32:23;;;;;;;;;9.00;8.00;;;;;;;;5106741;27;45759;-73
2022/11/27 02:35:03;;;;;;;;;8.67;8.67;;;;;;;;5112180;27;45526;-73
2022/11/27 02:37:34;;;;;;;;;12.00;10.33;;;;;;;;5090790;27;45258;-73
2022/11/27 02:40:12;;;;;;;;;7.67;7.67;;;;;;;;5099200;27;47882;-71
2022/11/27 02:42:58;;;;;;;;;9.00;6.00;;;;;;;;5072472;27;46201;-72
2022/11/27 02:45:33;;;;;;;;;7.00;6.00;;;;;;;;5108709;27;45362;-73
2022/11/27 02:47:58;;;;;;;;;13.00;9.00;;;;;;;;5095371;27;45487;-72
2022/11/27 02:50:25;;;;;;;;;12.33;10.67;;;;;;;;5099188;27;45584;-72
2022/11/27 02:52:52;;;;;;;;;8.00;6.33;;;;;;;;5098638;27;45690;-74
2022/11/27 02:55:21;;;;;;;;;8.33;8.00;;;;;;;;5125904;27;45348;-73
2022/11/27 02:57:47;;;;;;;;;9.67;9.67;;;;;;;;5109888;27;45671;-72
2022/11/27 03:00:13;;;;;;;;;9.33;8.00;;;;;;;;5102070;27;45356;-73
2022/11/27 03:02:41;;;;;;;;;8.00;7.00;;;;;;;;5109219;27;46044;-72
2022/11/27 03:05:09;;;;;;;;;8.33;7.67;;;;;;;;5116015;27;45887;-72
2022/11/27 03:07:38;;;;;;;;;11.33;6.67;;;;;;;;5096389;27;45840;-71
2022/11/27 03:10:09;;;;;;;;;10.67;8.67;;;;;;;;5104265;27;46775;-72
2022/11/27 03:12:34;;;;;;;;;7.33;7.33;;;;;;;;5101899;27;45722;-71
2022/11/27 03:15:00;;;;;;;;;10.33;7.00;;;;;;;;5099899;27;45408;-72
2022/11/27 03:17:51;;;;;;;;;9.00;8.00;;;;;;;;5087794;27;45877;-71
2022/11/27 03:20:28;;;;;;;;;11.67;6.00;;;;;;;;5088780;27;46816;-71
2022/11/27 03:22:54;;;;;;;;;6.33;6.33;;;;;;;;5074693;27;45832;-71
2022/11/27 03:25:20;;;;;;;;;8.67;8.67;;;;;;;;5077330;27;45579;-72
2022/11/27 03:27:48;;;;;;;;;13.00;9.00;;;;;;;;5076449;27;45542;-70
2022/11/27 03:30:14;;;;;;;;;11.00;7.33;;;;;;;;5094706;27;45604;-71
2022/11/27 03:32:39;;;;;;;;;8.00;8.00;;;;;;;;5094585;27;45736;-72
2022/11/27 03:35:07;;;;;;;;;8.00;5.33;;;;;;;;5076974;27;45602;-73
2022/11/27 03:37:32;;;;;;;;;7.33;7.00;;;;;;;;5075827;27;45738;-71
2022/11/27 03:39:57;;;;;;;;;7.67;5.67;;;;;;;;5076202;27;45639;-71
2022/11/27 03:42:25;;;;;;;;;8.33;8.00;;;;;;;;5078513;27;45397;-69
2022/11/27 03:44:53;;;;;;;;;5.67;5.67;;;;;;;;5083416;27;45410;-71
2022/11/27 03:47:24;;;;;;;;;9.00;6.33;;;;;;;;5085184;27;45871;-72
2022/11/27 03:49:56;;;;;;;;;5.00;5.00;;;;;;;;5098193;27;45353;-71
2022/11/27 03:52:40;;;;;;;;;8.33;8.33;;;;;;;;5071980;27;47611;-70
2022/11/27 03:55:05;;;;;;;;;9.33;8.00;;;;;;;;5087905;27;45388;-71
2022/11/27 03:57:37;;;;;;;;;9.67;7.67;;;;;;;;5090265;27;45390;-71
2022/11/27 04:00:07;;;;;;;;;8.33;8.33;;;;;;;;5092724;27;45365;-72
2022/11/27 04:02:40;;;;;;;;;5.33;5.33;;;;;;;;5106609;27;46328;-71
2022/11/27 04:05:05;;;;;;;;;6.00;5.00;;;;;;;;5089620;27;45900;-72
2022/11/27 04:07:30;;;;;;;;;5.33;4.33;;;;;;;;5087051;27;45522;-70
2022/11/27 04:09:56;;;;;;;;;6.67;6.00;;;;;;;;5093808;27;45727;-71
2022/11/27 04:12:21;;;;;;;;;9.00;5.33;;;;;;;;5094294;27;46038;-72
2022/11/27 04:14:46;;;;;;;;;10.67;7.33;;;;;;;;5105136;27;45458;-73
2022/11/27 04:17:11;;;;;;;;;7.33;4.67;;;;;;;;5083039;27;45380;-72
2022/11/27 04:19:37;;;;;;;;;7.33;4.00;;;;;;;;5104379;27;45685;-71
2022/11/27 04:22:02;;;;;;;;;10.33;8.00;;;;;;;;5077647;27;46352;-71
2022/11/27 04:24:27;;;;;;;;;7.33;5.33;;;;;;;;5089525;27;45394;-71
2022/11/27 04:26:52;;;;;;;;;7.67;7.00;;;;;;;;5090987;27;45391;-71
2022/11/27 04:29:18;;;;;;;;;9.00;7.33;;;;;;;;5093482;27;45715;-71
2022/11/27 04:31:43;;;;;;;;;9.00;7.33;;;;;;;;5082538;27;45704;-71
2022/11/27 04:34:08;;;;;;;;;10.33;7.33;;;;;;;;5078201;27;45416;-71
2022/11/27 04:36:33;;;;;;;;;7.67;7.00;;;;;;;;5058222;27;45345;-72
2022/11/27 04:38:59;;;;;;;;;9.67;9.67;;;;;;;;5062283;27;46177;-70
2022/11/27 04:41:24;;;;;;;;;10.00;8.00;;;;;;;;5081475;27;46372;-70
2022/11/27 04:43:49;;;;;;;;;8.00;7.00;;;;;;;;5093706;27;45822;-70
2022/11/27 04:46:14;;;;;;;;;11.00;8.67;;;;;;;;5098078;27;45687;-71
2022/11/27 04:48:40;;;;;;;;;7.00;7.00;;;;;;;;5100414;27;45760;-71
2022/11/27 04:51:05;;;;;;;;;8.33;8.00;;;;;;;;5087785;27;45456;-70
2022/11/27 04:53:31;;;;;;;;;8.33;8.00;;;;;;;;5078753;27;45551;-71
2022/11/27 04:55:56;;;;;;;;;6.67;6.33;;;;;;;;5075169;27;45599;-71
2022/11/27 04:58:21;;;;;;;;;14.00;8.67;;;;;;;;5096854;27;45735;-71
2022/11/27 05:00:46;;;;;;;;;12.00;8.67;;;;;;;;5092930;27;46202;-71
2022/11/27 05:03:12;;;;;;;;;13.00;10.00;;;;;;;;5071111;27;45688;-71
2022/11/27 05:05:37;;;;;;;;;9.00;7.00;;;;;;;;5086059;27;45733;-72
2022/11/27 05:08:02;;;;;;;;;7.33;7.00;;;;;;;;5092725;27;45419;-72
2022/11/27 05:10:28;;;;;;;;;9.33;7.00;;;;;;;;5071014;27;46957;-73
2022/11/27 05:12:53;;;;;;;;;12.33;9.00;;;;;;;;5094251;27;45574;-71
2022/11/27 05:15:18;;;;;;;;;7.33;7.33;;;;;;;;5092625;27;45688;-72
2022/11/27 05:17:43;;;;;;;;;7.33;6.33;;;;;;;;5086853;27;45262;-71
2022/11/27 05:20:09;;;;;;;;;11.00;9.67;;;;;;;;5082425;27;46489;-71
2022/11/27 05:22:34;;;;;;;;;11.67;9.00;;;;;;;;5089805;27;45755;-72
2022/11/27 05:25:00;;;;;;;;;8.00;6.67;;;;;;;;5063378;28;45657;-72
2022/11/27 05:27:25;;;;;;;;;10.67;9.00;;;;;;;;5062698;27;45789;-74
2022/11/27 05:29:50;;;;;;;;;8.33;8.33;;;;;;;;5068602;27;48386;-70
2022/11/27 05:32:15;;;;;;;;;10.33;8.00;;;;;;;;5073437;27;45489;-70
2022/11/27 05:34:41;;;;;;;;;9.00;8.00;;;;;;;;5093129;27;45335;-71
2022/11/27 05:37:06;;;;;;;;;10.67;8.33;;;;;;;;5091168;27;46083;-73
2022/11/27 05:39:31;;;;;;;;;13.00;8.00;;;;;;;;5084700;27;45929;-71
2022/11/27 05:41:57;;;;;;;;;6.00;5.00;;;;;;;;5092445;27;45372;-73
2022/11/27 05:44:22;;;;;;;;;7.67;7.67;;;;;;;;5091313;27;46397;-70
2022/11/27 05:46:47;;;;;;;;;10.67;8.33;;;;;;;;5068282;27;46037;-70
2022/11/27 05:49:14;;;;;;;;;8.33;8.00;;;;;;;;5072929;27;45594;-72
2022/11/27 05:51:39;;;;;;;;;9.33;9.00;;;;;;;;5074668;27;45457;-72
2022/11/27 05:54:04;;;;;;;;;14.00;7.33;;;;;;;;5077179;27;45385;-70
2022/11/27 05:56:30;;;;;;;;;10.33;8.00;;;;;;;;5082544;27;45626;-72
2022/11/27 05:58:55;;;;;;;;;9.67;8.00;;;;;;;;5077573;27;45621;-70
2022/11/27 06:01:20;;;;;;;;;7.67;7.67;;;;;;;;5078018;27;45923;-74
2022/11/27 06:03:45;;;;;;;;;10.00;10.00;;;;;;;;5074675;27;45764;-70
2022/11/27 06:06:12;;;;;;;;;8.33;5.00;;;;;;;;5075088;27;45508;-70
2022/11/27 06:08:38;;;;;;;;;12.00;7.67;;;;;;;;5075622;27;46601;-68
2022/11/27 06:11:07;;;;;;;;;9.00;8.33;;;;;;;;5077182;27;45461;-70
2022/11/27 06:13:32;;;;;;;;;5.00;5.00;;;;;;;;5057945;27;45773;-70
2022/11/27 06:15:58;;;;;;;;;7.33;7.33;;;;;;;;5075707;27;45787;-69
2022/11/27 06:18:23;;;;;;;;;9.33;8.00;;;;;;;;5080233;27;45530;-70
2022/11/27 06:20:48;;;;;;;;;11.67;10.33;;;;;;;;5081645;27;45510;-70
2022/11/27 06:23:13;;;;;;;;;6.67;5.67;;;;;;;;5080938;27;45510;-70
2022/11/27 06:25:39;;;;;;;;;11.00;9.33;;;;;;;;5082906;27;45473;-74
2022/11/27 06:28:04;;;;;;;;;11.50;6.00;;;;;;;;5086525;27;46405;-74
2022/11/27 06:30:29;;;;;;;;;10.67;8.67;;;;;;;;5080989;27;45345;-73
2022/11/27 06:32:54;;;;;;;;;8.67;6.67;;;;;;;;5082397;27;45463;-75
2022/11/27 06:35:20;;;;;;;;;9.00;8.00;;;;;;;;5085411;27;45495;-73
2022/11/27 06:37:45;;;;;;;;;10.33;10.33;;;;;;;;5082746;27;46110;-72
2022/11/27 06:40:10;;;;;;;;;8.00;6.67;;;;;;;;5081359;27;46130;-71
2022/11/27 06:42:36;;;;;;;;;8.67;6.33;;;;;;;;5085135;27;45940;-71
2022/11/27 06:45:01;;;;;;;;;10.00;8.33;;;;;;;;5062155;27;47041;-69
2022/11/27 06:47:27;;;;;;;;;10.67;7.00;;;;;;;;5084284;27;47126;-72
2022/11/27 06:49:52;;;;;;;;;7.00;7.00;;;;;;;;5076028;27;45309;-71
2022/11/27 06:52:18;;;;;;;;;11.33;9.00;;;;;;;;5085293;27;45801;-70
2022/11/27 06:54:43;;;;;;;;;8.67;8.00;;;;;;;;5071700;27;45405;-73
2022/11/27 06:57:08;;;;;;;;;7.67;7.67;;;;;;;;5079973;27;45268;-75
2022/11/27 06:59:33;;;;;;;;;8.33;6.33;;;;;;;;5080650;27;45541;-74
2022/11/27 07:01:59;;;;;;;;;5.00;4.00;;;;;;;;5068812;27;45631;-72
2022/11/27 07:04:24;;;;;;;;;11.33;10.00;;;;;;;;5083747;27;45585;-74
2022/11/27 07:06:49;;;;;;;;;7.33;7.33;;;;;;;;5091633;27;46036;-73
2022/11/27 07:09:15;;;;;;;;;10.00;9.00;;;;;;;;5092655;27;45426;-75
2022/11/27 07:11:40;;;;;;;;;12.00;11.67;;;;;;;;5097520;27;45344;-67
2022/11/27 07:14:06;;;;;;;;;9.00;8.00;;;;;;;;5081193;27;45326;-71
2022/11/27 07:16:32;;;;;;;;;7.67;7.67;;;;;;;;5091692;27;45589;-75
2022/11/27 07:18:59;;;;;;;;;12.67;7.67;;;;;;;;5093909;27;45487;-74
2022/11/27 07:21:24;;;;;;;;;9.00;9.00;;;;;;;;5086845;27;45521;-75
2022/11/27 07:23:49;;;;;;;;;7.67;7.67;;;;;;;;5086805;27;46031;-73
2022/11/27 07:26:16;;;;;;;;;9.67;9.00;;;;;;;;5090305;27;45829;-72
2022/11/27 07:28:44;;;;;;;;;8.50;8.50;;;;;;;;5081256;27;45341;-74
2022/11/27 07:31:14;;;;;;;;;14.67;11.00;;;;;;;;5087458;27;45510;-72
2022/11/27 07:33:39;;;;;;;;;5.67;4.67;;;;;;;;5099943;27;45933;-72
2022/11/27 07:36:06;;;;;;;;;6.67;6.00;;;;;;;;5061883;27;47245;-71
2022/11/27 07:38:32;;;;;;;;;10.00;9.67;;;;;;;;5083805;27;45828;-73
2022/11/27 07:41:01;;;;;;;;;10.67;7.00;;;;;;;;5086553;27;45481;-76
2022/11/27 07:43:26;;;;;;;;;7.00;7.00;;;;;;;;5081108;27;45945;-72
2022/11/27 07:45:51;;;;;;;;;15.33;11.00;;;;;;;;5085213;27;45640;-71
2022/11/27 07:48:17;;;;;;;;;10.00;8.00;;;;;;;;5094234;27;45468;-73
2022/11/27 07:50:42;;;;;;;;;7.00;6.00;;;;;;;;5094862;27;45364;-73
2022/11/27 07:53:08;;;;;;;;;13.33;9.00;;;;;;;;5104012;27;45366;-75
2022/11/27 07:55:36;;;;;;;;;13.00;10.00;;;;;;;;5085907;27;46483;-75
2022/11/27 07:58:06;;;;;;;;;10.33;9.67;;;;;;;;5095573;27;45622;-74
2022/11/27 08:00:32;;;;;;;;;9.67;9.00;;;;;;;;5088232;27;45689;-72
2022/11/27 08:02:58;;;;;;;;;12.67;9.33;;;;;;;;5080899;27;45590;-73
2022/11/27 08:05:23;;;;;;;;;11.33;11.00;;;;;;;;5088481;27;45922;-74
2022/11/27 08:07:48;;;;;;;;;11.33;8.00;;;;;;;;5094475;27;45549;-74
2022/11/27 08:10:13;;;;;;;;;10.00;8.33;;;;;;;;5084660;27;45436;-76
2022/11/27 08:12:41;;;;;;;;;4.33;2.33;;;;;;;;5093645;27;45438;-73
2022/11/27 08:15:07;;;;;;;;;9.67;8.33;;;;;;;;5093386;27;45892;-75
2022/11/27 08:17:32;;;;;;;;;9.00;9.00;;;;;;;;5067367;27;45654;-75
2022/11/27 08:20:01;;;;;;;;;12.67;7.33;;;;;;;;5086741;27;45886;-77
2022/11/27 08:22:26;;;;;;;;;13.33;10.67;;;;;;;;5092063;27;45863;-74
2022/11/27 08:24:51;;;;;;;;;10.33;8.33;;;;;;;;5086903;27;46722;-73
2022/11/27 08:27:17;;;;;;;;;11.00;11.00;;;;;;;;5091536;27;45705;-78
2022/11/27 08:29:42;;;;;;;;;12.67;9.67;;;;;;;;5092496;27;45542;-74
2022/11/27 08:32:07;;;;;;;;;13.00;10.00;;;;;;;;5078223;27;45607;-74
2022/11/27 08:34:33;;;;;;;;;14.33;12.67;;;;;;;;5082040;27;45598;-74
2022/11/27 08:36:58;;;;;;;;;9.00;9.00;;;;;;;;5081784;27;45840;-74
2022/11/27 08:39:25;;;;;;;;;11.00;9.00;;;;;;;;5068755;27;45495;-72
2022/11/27 08:41:50;;;;;;;;;6.33;5.00;;;;;;;;5089193;27;45619;-71
2022/11/27 08:44:16;;;;;;;;;13.33;11.33;;;;;;;;5085054;27;45310;-76
2022/11/27 08:46:42;;;;;;;;;3.33;2.33;;;;;;;;5066101;27;45724;-74
2022/11/27 08:49:07;;;;;;;;;11.00;8.67;;;;;;;;5099874;27;45357;-75
2022/11/27 08:51:32;;;;;;;;;11.00;9.67;;;;;;;;5091104;27;45301;-75
2022/11/27 08:53:57;;;;;;;;;16.33;12.67;;;;;;;;5106203;27;46632;-74
2022/11/27 08:56:24;;;;;;;;;15.33;14.00;;;;;;;;5085110;27;45173;-74
2022/11/27 08:58:49;;;;;;;;;10.67;10.67;;;;;;;;5084020;27;45599;-75
2022/11/27 09:01:24;;;;;;;;;17.00;12.00;;;;;;;;5092652;27;45253;-74
2022/11/27 09:03:51;;;;;;;;;15.67;10.33;;;;;;;;5080478;27;45516;-76
2022/11/27 09:06:17;;;;;;;;;7.33;5.00;;;;;;;;5092588;27;45806;-75
2022/11/27 09:08:43;;;;;;;;;9.33;7.00;;;;;;;;5076150;27;45673;-75
2022/11/27 09:11:09;;;;;;;;;15.33;12.00;;;;;;;;5094216;27;45779;-73
2022/11/27 09:13:41;;;;;;;;;13.67;11.33;;;;;;;;5094153;27;46178;-75
2022/11/27 09:16:08;;;;;;;;;14.67;11.00;;;;;;;;5075474;27;45862;-70
2022/11/27 09:18:33;;;;;;;;;19.00;14.00;;;;;;;;5074902;27;45500;-74
2022/11/27 09:21:09;;;;;;;;;10.33;10.33;;;;;;;;5092489;27;45474;-74
2022/11/27 09:23:37;;;;;;;;;16.33;11.33;;;;;;;;5094302;27;45502;-74
2022/11/27 09:26:06;;;;;;;;;9.67;9.67;;;;;;;;5093133;27;45601;-72
2022/11/27 09:28:32;;;;;;;;;16.00;10.00;;;;;;;;5084791;27;45467;-72
2022/11/27 09:30:58;;;;;;;;;11.33;11.00;;;;;;;;5092170;27;45709;-75
2022/11/27 09:33:25;;;;;;;;;9.33;9.33;;;;;;;;5083880;27;45413;-72
2022/11/27 09:35:51;;;;;;;;;11.67;8.33;;;;;;;;5079160;27;45519;-73
2022/11/27 09:38:16;;;;;;;;;16.67;13.67;;;;;;;;5083003;27;45851;-72
2022/11/27 09:40:43;;;;;;;;;11.67;10.33;;;;;;;;5083125;27;45654;-73
2022/11/27 09:43:10;;;;;;;;;9.00;9.00;;;;;;;;5087679;27;45643;-75
2022/11/27 09:45:43;;;;;;;;;12.67;9.67;;;;;;;;5082239;27;45372;-73
2022/11/27 09:48:11;;;;;;;;;12.00;10.67;;;;;;;;5070378;27;45729;-73
2022/11/27 09:50:41;;;;;;;;;11.67;9.00;;;;;;;;5080664;27;45660;-74
2022/11/27 09:53:25;;;;;;;;;10.33;9.00;;;;;;;;5081546;27;46375;-74
2022/11/27 09:55:51;;;;;;;;;7.33;7.00;;;;;;;;5076942;27;45514;-76
2022/11/27 09:58:35;;;;;;;;;11.33;9.67;;;;;;;;5083533;27;45808;-75
2022/11/27 10:01:07;;;;;;;;;10.00;7.67;;;;;;;;5085095;27;44793;-72
2022/11/27 10:03:33;;;;;;;;;14.00;8.33;;;;;;;;5074328;27;48352;-74
2022/11/27 10:06:10;;;;;;;;;14.67;12.33;;;;;;;;5079726;27;45884;-73
2022/11/27 10:08:57;;;;;;;;;10.67;9.00;;;;;;;;5085595;27;45467;-74
2022/11/27 10:11:40;;;;;;;;;13.67;11.00;;;;;;;;5081809;27;45276;-74
2022/11/27 10:14:05;;;;;;;;;11.67;10.00;;;;;;;;5064122;27;48106;-72
2022/11/27 10:16:38;;;;;;;;;13.00;10.00;;;;;;;;5070761;27;45604;-79
2022/11/27 10:19:11;;;;;;;;;12.00;9.67;;;;;;;;5082258;27;45405;-79
2022/11/27 10:21:48;;;;;;;;;12.00;9.33;;;;;;;;5089596;27;45506;-77
2022/11/27 10:24:35;;;;;;;;;12.67;11.00;;;;;;;;5078955;27;46413;-75
2022/11/27 10:27:02;;;;;;;;;9.00;9.00;;;;;;;;5093463;27;45408;-77
2022/11/27 10:29:42;;;;;;;;;10.67;10.33;;;;;;;;5095945;27;45345;-75
2022/11/27 10:32:10;;;;;;;;;13.33;12.00;;;;;;;;5095434;27;45690;-77
2022/11/27 10:34:39;;;;;;;;;12.00;9.00;;;;;;;;5098419;27;45749;-78
2022/11/27 10:37:30;;;;;;;;;14.00;12.33;;;;;;;;5095100;27;45308;-77
2022/11/27 10:39:58;;;;;;;;;12.00;7.67;;;;;;;;5092554;27;45289;-76
2022/11/27 10:42:39;;;;;;;;;14.33;12.00;;;;;;;;5089077;27;45661;-77
2022/11/27 10:45:05;;;;;;;;;11.33;9.33;;;;;;;;5096270;27;45334;-78
2022/11/27 10:47:31;;;;;;;;;13.00;11.00;;;;;;;;5096640;27;45721;-76
2022/11/27 10:49:56;;;;;;;;;10.00;9.67;;;;;;;;5078588;27;45294;-75
2022/11/27 10:52:22;;;;;;;;;13.33;11.00;;;;;;;;5099994;27;45645;-73
2022/11/27 10:54:56;;;;;;;;;10.33;10.33;;;;;;;;5097542;27;45409;-75
2022/11/27 10:57:42;;;;;;;;;11.67;11.00;;;;;;;;5089285;27;45718;-75
2022/11/27 11:00:10;;;;;;;;;10.33;10.00;;;;;;;;5084863;27;45362;-76
2022/11/27 11:02:37;;;;;;;;;15.00;12.00;;;;;;;;5098159;27;45246;-74
2022/11/27 11:05:22;;;;;;;;;13.00;11.67;;;;;;;;5098659;27;46826;-76
2022/11/27 11:08:03;;;;;;;;;14.00;12.33;;;;;;;;5093593;27;45453;-75
2022/11/27 11:10:33;;;;;;;;;20.00;15.33;;;;;;;;5060366;28;45311;-76
2022/11/27 11:13:11;;;;;;;;;13.00;11.67;;;;;;;;5093437;27;45383;-77
2022/11/27 11:15:50;;;;;;;;;12.00;11.00;;;;;;;;5118645;22;45552;-84
2022/11/27 11:18:23;;;;;;;;;13.67;11.00;;;;;;;;4988572;28;45631;-83
2022/11/27 11:20:52;;;;;;;;;13.00;11.00;;;;;;;;4990149;28;45719;-83
2022/11/27 11:23:24;;;;;;;;;13.67;11.33;;;;;;;;4983695;28;47238;-84
2022/11/27 11:25:54;;;;;;;;;15.00;10.33;;;;;;;;4978943;28;45747;-82
2022/11/27 11:28:20;;;;;;;;;12.33;12.00;;;;;;;;4994205;28;45537;-83
2022/11/27 11:31:11;;;;;;;;;10.00;10.00;;;;;;;;4999431;28;45834;-81
2022/11/27 11:33:48;;;;;;;;;14.33;12.00;;;;;;;;4973548;28;46949;-82
2022/11/27 11:36:14;;;;;;;;;11.00;9.00;;;;;;;;4998703;28;46717;-83
2022/11/27 11:38:41;;;;;;;;;15.67;15.00;;;;;;;;4990933;28;45983;-82
2022/11/27 11:41:08;;;;;;;;;13.67;13.67;;;;;;;;4992261;28;45625;-84
2022/11/27 11:43:35;;;;;;;;;12.00;10.67;;;;;;;;4998413;28;45591;-85
2022/11/27 11:46:14;;;;;;;;;12.33;11.67;;;;;;;;5016813;28;45800;-82
2022/11/27 11:48:50;;;;;;;;;13.00;10.00;;;;;;;;5010923;28;45536;-83
2022/11/27 11:51:22;;;;;;;;;14.67;8.33;;;;;;;;4997231;28;45341;-83
2022/11/27 11:53:54;;;;;;;;;18.67;16.33;;;;;;;;5022457;28;45344;-81
2022/11/27 11:56:37;;;;;;;;;14.67;13.67;;;;;;;;5026449;28;45705;-84
2022/11/27 11:59:09;;;;;;;;;14.00;11.67;;;;;;;;4984244;28;45955;-82
2022/11/27 12:01:37;;;;;;;;;12.00;11.00;;;;;;;;5016138;28;45431;-84
2022/11/27 12:04:11;;;;;;;;;13.67;13.33;;;;;;;;5014570;28;45739;-83
2022/11/27 12:06:36;;;;;;;;;16.33;13.67;;;;;;;;5005240;28;45772;-83
2022/11/27 12:09:22;;;;;;;;;17.00;14.00;;;;;;;;5008791;28;45978;-83
2022/11/27 12:12:03;;;;;;;;;16.00;14.00;;;;;;;;4990360;28;45548;-83
2022/11/27 12:14:39;;;;;;;;;18.00;16.00;;;;;;;;4997536;28;45733;-83
2022/11/27 12:17:05;;;;;;;;;16.33;14.33;;;;;;;;5014902;28;45780;-84
2022/11/27 12:19:40;;;;;;;;;19.67;17.67;;;;;;;;4994183;28;45531;-81
2022/11/27 12:22:17;;;;;;;;;8.33;6.67;;;;;;;;5010288;28;45421;-83
2022/11/27 12:25:01;;;;;;;;;16.33;14.00;;;;;;;;5017929;28;46375;-84
2022/11/27 12:27:27;;;;;;;;;13.00;11.00;;;;;;;;5001702;28;46800;-84
2022/11/27 12:30:04;;;;;;;;;19.67;14.33;;;;;;;;5011267;28;45691;-82
2022/11/27 12:32:44;;;;;;;;;12.33;12.00;;;;;;;;5012691;28;45943;-83
2022/11/27 12:35:31;;;;;;;;;16.00;12.00;;;;;;;;4993516;28;45778;-86
2022/11/27 12:38:11;;;;;;;;;18.33;15.33;;;;;;;;4991118;28;46375;-86
2022/11/27 12:40:53;;;;;;;;;19.00;13.33;;;;;;;;5008965;28;45542;-86
2022/11/27 12:43:26;;;;;;;;;12.33;12.00;;;;;;;;4999002;28;45434;-87
2022/11/27 12:52:53;;;;;;;;;15.00;14.33;;;;;;;;4895475;29;45494;-87
2022/11/27 12:55:24;;;;;;;;;14.00;13.00;;;;;;;;4888517;29;45450;-86
2022/11/27 12:57:52;;;;;;;;;16.33;15.00;;;;;;;;4977378;28;45406;-86
2022/11/27 13:00:19;;;;;;;;;18.67;16.33;;;;;;;;5006936;28;47298;-85
2022/11/27 13:02:48;;;;;;;;;17.67;16.00;;;;;;;;5008375;28;46093;-86
2022/11/27 13:05:22;;;;;;;;;14.33;13.00;;;;;;;;5005802;28;44740;-85
2022/11/27 13:07:59;;;;;;;;;18.00;14.33;;;;;;;;5025393;28;45424;-85
2022/11/27 13:10:24;;;;;;;;;15.67;12.33;;;;;;;;5031937;28;45511;-85
2022/11/27 13:13:09;;;;;;;;;20.00;14.67;;;;;;;;5028380;28;45349;-86
2022/11/27 13:15:39;;;;;;;;;18.33;17.00;;;;;;;;5020064;28;45438;-85
2022/11/27 13:18:15;;;;;;;;;18.67;16.00;;;;;;;;5006460;28;45993;-82
2022/11/27 13:20:41;;;;;;;;;15.00;13.00;;;;;;;;5004830;28;46293;-82
2022/11/27 13:23:06;;;;;;;;;26.00;20.33;;;;;;;;4994395;28;45859;-81
2022/11/27 13:25:35;;;;;;;;;20.33;19.00;;;;;;;;4992039;28;45836;-83
2022/11/27 13:28:03;;;;;;;;;22.00;14.67;;;;;;;;4992547;28;45486;-82
2022/11/27 13:30:31;;;;;;;;;14.67;14.67;;;;;;;;5008306;28;45352;-84
2022/11/27 13:33:05;;;;;;;;;18.33;14.33;;;;;;;;5003108;28;45432;-85
2022/11/27 13:35:40;;;;;;;;;19.00;15.00;;;;;;;;5014430;28;45519;-83
2022/11/27 13:38:13;;;;;;;;;15.67;13.00;;;;;;;;5010018;28;45716;-84
2022/11/27 13:40:41;;;;;;;;;16.33;16.33;;;;;;;;5014717;28;46404;-83
2022/11/27 13:43:23;;;;;;;;;18.00;15.00;;;;;;;;5015600;28;45798;-84
2022/11/27 13:45:49;;;;;;;;;16.67;15.00;;;;;;;;4997808;28;45831;-82
2022/11/27 13:48:25;;;;;;;;;15.67;14.67;;;;;;;;5014680;28;45347;-83
2022/11/27 13:51:03;;;;;;;;;14.00;12.67;;;;;;;;5004606;28;45511;-82
2022/11/27 13:53:33;;;;;;;;;17.33;16.00;;;;;;;;5008274;28;45624;-82
2022/11/27 13:56:06;;;;;;;;;13.33;13.33;;;;;;;;4995129;28;45519;-83
2022/11/27 13:58:45;;;;;;;;;15.00;15.00;;;;;;;;5012826;28;45911;-82
2022/11/27 14:01:37;;;;;;;;;12.67;12.67;;;;;;;;5021078;28;45468;-84
2022/11/27 14:04:17;;;;;;;;;11.00;11.00;;;;;;;;4995130;28;45707;-82
2022/11/27 14:06:52;;;;;;;;;13.33;10.67;;;;;;;;4999020;28;45685;-82
2022/11/27 14:09:33;;;;;;;;;11.00;9.33;;;;;;;;4997926;28;45868;-82
2022/11/27 14:12:10;;;;;;;;;16.00;15.33;;;;;;;;5015113;28;45837;-83
2022/11/27 14:14:41;;;;;;;;;14.33;14.33;;;;;;;;5015463;28;45496;-82
2022/11/27 14:17:22;;;;;;;;;11.67;10.00;;;;;;;;4996776;28;45379;-83
2022/11/27 14:19:57;;;;;;;;;11.33;10.00;;;;;;;;5014251;28;45411;-85
2022/11/27 14:22:33;;;;;;;;;19.00;16.00;;;;;;;;5012473;28;46439;-84
2022/11/27 14:25:00;;;;;;;;;16.67;15.00;;;;;;;;5023316;28;44724;-87
2022/11/27 14:27:32;;;;;;;;;12.00;9.67;;;;;;;;5034488;28;45376;-86
2022/11/27 14:30:09;;;;;;;;;16.00;11.00;;;;;;;;5017832;28;45581;-85
2022/11/27 14:32:36;;;;;;;;;13.00;11.00;;;;;;;;5025512;28;45580;-87
2022/11/27 14:35:01;;;;;;;;;13.00;12.00;;;;;;;;5012978;28;45367;-84
2022/11/27 14:37:27;;;;;;;;;11.33;11.33;;;;;;;;5020755;28;45434;-86
2022/11/27 14:39:53;;;;;;;;;11.67;11.67;;;;;;;;4996509;28;45769;-86
2022/11/27 14:42:24;;;;;;;;;11.67;11.67;;;;;;;;5021446;28;46079;-85
2022/11/27 14:45:00;;;;;;;;;12.33;10.00;;;;;;;;5020074;28;45330;-87
2022/11/27 14:47:25;;;;;;;;;11.00;9.67;;;;;;;;5022571;28;45672;-86